createdAt,value
2023-01-29T00:02:40.079Z,2.22
2023-01-29T00:12:45.312Z,2.25
2023-01-29T00:17:48.470Z,3.15
2023-01-29T00:22:51.515Z,3.30
2023-01-29T00:27:54.672Z,2.22
2023-01-29T00:32:58.003Z,2.95
2023-01-29T00:38:02.347Z,2.50
2023-01-29T00:43:23.338Z,2.67
2023-01-29T00:48:26.105Z,3.28
2023-01-29T00:53:29.388Z,3.95
2023-01-29T00:58:36.001Z,2.40
2023-01-29T01:03:42.391Z,2.05
2023-01-29T01:09:04.064Z,2.83
2023-01-29T01:14:07.033Z,2.63
2023-01-29T01:19:10.115Z,1.67
2023-01-29T01:24:13.682Z,3.83
2023-01-29T01:29:16.422Z,2.92
2023-01-29T01:34:20.617Z,2.20
2023-01-29T01:39:24.023Z,3.42
2023-01-29T01:44:55.050Z,4.03
2023-01-29T01:50:04.218Z,2.35
2023-01-29T01:55:09.368Z,3.72
2023-01-29T02:00:16.011Z,4.40
2023-01-29T02:05:37.697Z,2.65
2023-01-29T02:10:47.185Z,3.60
2023-01-29T02:15:50.074Z,3.17
2023-01-29T02:21:15.573Z,2.28
2023-01-29T02:26:50.511Z,3.67
2023-01-29T02:32:17.556Z,3.30
2023-01-29T02:37:32.060Z,4.18
2023-01-29T02:42:45.303Z,2.60
2023-01-29T02:47:50.981Z,4.07
2023-01-29T02:53:03.739Z,3.67
2023-01-29T02:58:26.068Z,3.67
2023-01-29T03:03:35.089Z,3.20
2023-01-29T03:08:43.314Z,3.63
2023-01-29T03:13:55.434Z,3.40
2023-01-29T03:19:06.274Z,4.00
2023-01-29T03:24:29.992Z,3.35
2023-01-29T03:29:55.160Z,3.50
2023-01-29T03:35:05.155Z,4.18
2023-01-29T03:40:10.612Z,3.63
2023-01-29T03:45:28.556Z,2.42
2023-01-29T03:50:53.224Z,3.65
2023-01-29T03:55:59.989Z,2.95
2023-01-29T04:01:20.397Z,2.33
2023-01-29T04:06:30.654Z,2.90
2023-01-29T04:11:45.515Z,3.50
2023-01-29T04:16:54.700Z,2.55
2023-01-29T04:22:24.795Z,2.08
2023-01-29T04:27:32.125Z,1.88
2023-01-29T04:33:08.580Z,2.72
2023-01-29T04:38:34.465Z,2.67
2023-01-29T04:43:46.259Z,3.45
2023-01-29T04:49:39.322Z,2.85
2023-01-29T04:55:03.748Z,3.00
2023-01-29T05:00:36.353Z,1.23
2023-01-29T05:05:42.846Z,2.88
2023-01-29T05:10:50.746Z,1.55
2023-01-29T05:16:05.932Z,1.48
2023-01-29T05:21:09.856Z,1.63
2023-01-29T05:26:30.749Z,4.07
2023-01-29T05:31:33.367Z,2.90
2023-01-29T05:36:36.159Z,1.85
2023-01-29T05:41:38.988Z,2.85
2023-01-29T05:46:41.785Z,3.83
2023-01-29T05:51:44.882Z,2.92
2023-01-29T05:56:47.596Z,2.80
2023-01-29T06:01:50.407Z,3.85
2023-01-29T06:06:53.155Z,3.38
2023-01-29T06:11:55.960Z,3.03
2023-01-29T06:16:58.786Z,2.67
2023-01-29T06:22:01.425Z,2.63
2023-01-29T06:27:04.307Z,3.30
2023-01-29T06:32:07.542Z,2.95
2023-01-29T06:37:10.668Z,4.30
2023-01-29T06:42:14.231Z,2.85
2023-01-29T06:47:16.910Z,5.18
2023-01-29T06:52:19.868Z,4.32
2023-01-29T06:57:22.742Z,6.05
2023-01-29T07:02:25.401Z,8.10
2023-01-29T07:07:28.009Z,5.28
2023-01-29T07:12:30.686Z,7.25
2023-01-29T07:17:33.367Z,5.20
2023-01-29T07:22:36.328Z,3.00
2023-01-29T07:27:39.326Z,4.35
2023-01-29T07:32:42.152Z,4.20
2023-01-29T07:37:44.931Z,4.68
2023-01-29T07:42:47.695Z,4.68
2023-01-29T07:47:54.526Z,5.53
2023-01-29T07:52:57.391Z,3.42
2023-01-29T07:58:02.175Z,4.07
2023-01-29T08:03:14.067Z,5.03
2023-01-29T08:08:17.347Z,6.22
2023-01-29T08:13:20.516Z,5.35
2023-01-29T08:18:23.247Z,7.78
2023-01-29T08:23:26.144Z,4.53
2023-01-29T08:28:29.193Z,5.38
2023-01-29T08:33:39.627Z,4.88
2023-01-29T08:38:47.112Z,2.30
2023-01-29T08:43:49.924Z,4.25
2023-01-29T08:48:52.770Z,2.65
2023-01-29T08:53:55.560Z,3.78
2023-01-29T08:58:59.727Z,4.95
2023-01-29T09:04:02.557Z,4.45
2023-01-29T09:09:05.311Z,3.10
2023-01-29T09:14:10.110Z,3.28
2023-01-29T09:19:14.766Z,5.07
2023-01-29T09:24:17.674Z,5.72
2023-01-29T09:29:20.329Z,5.47
2023-01-29T09:34:24.546Z,3.83
2023-01-29T09:39:29.889Z,3.30
2023-01-29T09:45:04.969Z,5.75
2023-01-29T09:50:15.480Z,3.33
2023-01-29T09:55:32.922Z,5.85
2023-01-29T10:01:02.299Z,5.45
2023-01-29T10:06:08.049Z,5.28
2023-01-29T10:11:22.584Z,4.07
2023-01-29T10:16:45.381Z,6.10
2023-01-29T10:22:06.316Z,4.75
2023-01-29T10:27:20.330Z,4.60
2023-01-29T10:32:27.288Z,6.32
2023-01-29T10:37:46.563Z,5.93
2023-01-29T10:42:57.750Z,5.10
2023-01-29T10:48:28.602Z,5.35
2023-01-29T10:54:16.546Z,4.78
2023-01-29T10:59:31.213Z,4.15
2023-01-29T11:04:35.647Z,4.57
2023-01-29T11:09:52.426Z,5.00
2023-01-29T11:15:15.190Z,4.78
2023-01-29T11:20:36.536Z,6.13
2023-01-29T11:25:39.658Z,5.25
2023-01-29T11:30:43.638Z,5.18
2023-01-29T11:35:47.490Z,5.07
2023-01-29T11:40:50.310Z,5.25
2023-01-29T11:45:58.316Z,4.68
2023-01-29T11:51:01.715Z,5.25
2023-01-29T11:56:26.883Z,5.05
2023-01-29T12:06:49.239Z,5.68
2023-01-29T12:11:52.931Z,5.28
2023-01-29T12:17:04.747Z,5.95
2023-01-29T12:22:36.362Z,5.90
2023-01-29T12:28:22.828Z,4.60
2023-01-29T12:33:49.229Z,4.80
2023-01-29T12:38:54.091Z,4.15
2023-01-29T12:44:04.960Z,4.35
2023-01-29T12:49:16.865Z,5.05
2023-01-29T12:54:48.799Z,5.68
2023-01-29T13:00:07.105Z,5.10
2023-01-29T13:05:38.879Z,4.32
2023-01-29T13:10:46.187Z,5.10
2023-01-29T13:15:50.570Z,5.53
2023-01-29T13:20:53.851Z,5.63
2023-01-29T13:25:57.826Z,6.00
2023-01-29T13:31:41.430Z,5.97
2023-01-29T13:36:47.361Z,5.78
2023-01-29T13:41:51.504Z,5.82
2023-01-29T13:47:03.243Z,6.35
2023-01-29T13:52:30.782Z,5.60
2023-01-29T13:57:56.281Z,5.85
2023-01-29T14:03:01.824Z,5.85
2023-01-29T14:08:27.300Z,5.32
2023-01-29T14:13:36.194Z,4.60
2023-01-29T14:19:01.526Z,5.95
2023-01-29T14:24:19.325Z,4.63
2023-01-29T14:29:34.791Z,5.03
2023-01-29T14:34:52.373Z,3.88
2023-01-29T14:40:20.187Z,5.63
2023-01-29T14:45:35.939Z,7.53
2023-01-29T14:50:41.212Z,8.30
2023-01-29T14:55:49.655Z,7.75
2023-01-29T15:00:57.077Z,4.05
2023-01-29T15:06:01.347Z,4.97
2023-01-29T15:11:30.851Z,4.78
2023-01-29T15:16:59.158Z,4.60
2023-01-29T15:22:23.760Z,3.97
2023-01-29T15:27:26.801Z,4.72
2023-01-29T15:32:37.874Z,6.63
2023-01-29T15:37:40.568Z,9.60
2023-01-29T15:42:47.127Z,12.82
2023-01-29T15:47:51.017Z,12.88
2023-01-29T15:52:55.677Z,10.30
2023-01-29T15:57:59.486Z,12.93
2023-01-29T16:03:16.119Z,11.77
2023-01-29T16:08:21.144Z,11.85
2023-01-29T16:13:30.841Z,8.90
2023-01-29T16:18:41.064Z,12.40
2023-01-29T16:24:02.909Z,9.30
2023-01-29T16:29:09.727Z,12.52
2023-01-29T16:34:29.716Z,11.02
2023-01-29T16:39:39.857Z,7.53
2023-01-29T16:45:02.952Z,11.57
2023-01-29T16:50:40.511Z,12.88
2023-01-29T16:55:47.205Z,10.45
2023-01-29T17:00:57.038Z,11.35
2023-01-29T17:06:08.749Z,10.02
2023-01-29T17:11:23.588Z,8.68
2023-01-29T17:16:32.745Z,9.00
2023-01-29T17:21:35.588Z,8.43
2023-01-29T17:26:39.462Z,8.02
2023-01-29T17:31:43.886Z,8.02
2023-01-29T17:36:47.986Z,8.60
2023-01-29T17:41:53.918Z,9.93
2023-01-29T17:46:58.078Z,10.27
2023-01-29T17:52:01.159Z,10.18
2023-01-29T17:57:04.122Z,10.35
2023-01-29T18:02:08.849Z,9.90
2023-01-29T18:07:35.302Z,10.27
2023-01-29T18:12:38.170Z,7.35
2023-01-29T18:17:41.859Z,9.48
2023-01-29T18:22:44.967Z,9.70
2023-01-29T18:27:47.821Z,8.95
2023-01-29T18:32:50.609Z,9.48
2023-01-29T18:37:53.334Z,9.02
2023-01-29T18:42:56.121Z,9.27
2023-01-29T18:47:59.271Z,7.97
2023-01-29T18:53:04.516Z,8.48
2023-01-29T18:58:26.761Z,8.23
2023-01-29T19:03:30.158Z,9.38
2023-01-29T19:08:35.174Z,8.23
2023-01-29T19:13:38.373Z,7.85
2023-01-29T19:18:41.931Z,4.57
2023-01-29T19:23:45.232Z,7.75
2023-01-29T19:28:48.346Z,7.70
2023-01-29T19:33:51.529Z,7.30
2023-01-29T19:38:54.288Z,6.82
2023-01-29T19:43:57.520Z,7.50
2023-01-29T19:49:01.113Z,6.65
2023-01-29T19:54:04.351Z,7.47
2023-01-29T19:59:07.625Z,5.35
2023-01-29T20:04:10.714Z,6.85
2023-01-29T20:09:13.799Z,7.47
2023-01-29T20:14:16.631Z,7.40
2023-01-29T20:19:20.878Z,6.85
2023-01-29T20:24:24.836Z,7.13
2023-01-29T20:29:27.550Z,7.68
2023-01-29T20:34:31.483Z,7.28
2023-01-29T20:39:34.468Z,6.70
2023-01-29T20:44:37.473Z,7.05
2023-01-29T20:49:40.372Z,6.10
2023-01-29T20:54:44.896Z,6.97
2023-01-29T20:59:48.271Z,6.22
2023-01-29T21:04:51.118Z,6.93
2023-01-29T21:09:53.846Z,7.88
2023-01-29T21:14:56.698Z,7.28
2023-01-29T21:19:59.703Z,7.47
2023-01-29T21:25:02.746Z,7.95
2023-01-29T21:30:06.953Z,8.40
2023-01-29T21:35:10.511Z,6.53
2023-01-29T21:40:13.791Z,7.60
2023-01-29T21:45:16.937Z,7.07
2023-01-29T21:50:19.986Z,8.05
2023-01-29T21:55:22.938Z,6.70
2023-01-29T22:00:29.428Z,7.65
2023-01-29T22:05:34.340Z,8.02
2023-01-29T22:10:37.847Z,7.40
2023-01-29T22:15:40.918Z,7.53
2023-01-29T22:20:44.630Z,6.97
2023-01-29T22:25:47.319Z,7.13
2023-01-29T22:30:50.202Z,7.95
2023-01-29T22:35:56.638Z,6.78
2023-01-29T22:41:01.234Z,8.05
2023-01-29T22:46:10.564Z,7.05
2023-01-29T22:51:14.048Z,6.93
2023-01-29T22:56:18.695Z,7.65
2023-01-29T23:01:24.016Z,6.95
2023-01-29T23:06:27.014Z,7.80
2023-01-29T23:11:29.854Z,7.47
2023-01-29T23:16:32.528Z,7.68
2023-01-29T23:21:35.335Z,7.55
2023-01-29T23:26:56.590Z,7.97
2023-01-29T23:31:59.251Z,7.70
2023-01-29T23:37:01.912Z,7.82
2023-01-29T23:42:05.079Z,7.88
2023-01-29T23:47:08.819Z,8.10
2023-01-29T23:52:11.615Z,7.47
2023-01-29T23:57:14.654Z,7.07
